Time;durP1;ratioP1;P1;durP2;ratioP2;P2;SDS_P1;SDS_P2;PMS_P1;PMS_P2;Temp;Humidity;BMP_temperature;BMP_pressure;BME280_temperature;BME280_humidity;BME280_pressure;Samples;Min_cycle;Max_cycle;Signal;HPM_P1;HPM_P2
2022/10/06 00:01:38;;;;;;;;;;;8.50;99.90;;;;;;5112420;27;1220;-57
2022/10/06 00:04:16;;;;;;;;;;;8.40;99.90;;;;;;5092363;27;1471;-57
2022/10/06 00:06:54;;;;;;;;;;;8.30;99.90;;;;;;5072420;27;1304;-57
2022/10/06 00:09:33;;;;;;;;;;;8.10;99.90;;;;;;5091407;27;1303;-57
2022/10/06 00:12:11;;;;;;;;;;;8.00;99.90;;;;;;5112127;27;1234;-57
2022/10/06 00:14:49;;;;;;;;;;;7.90;99.90;;;;;;5112394;27;1402;-57
2022/10/06 00:17:27;;;;;;;;;;;8.00;99.90;;;;;;5112458;27;1390;-56
2022/10/06 00:20:06;;;;;;;;;;;8.00;99.90;;;;;;5108983;27;1520;-57
2022/10/06 00:22:46;;;;;;;;;;;8.10;99.90;;;;;;5091358;27;1650;-57
2022/10/06 00:25:27;;;;;;;;;;;8.00;99.90;;;;;;5111328;27;1216;-56
2022/10/06 00:28:05;;;;;;;;;;;8.10;99.90;;;;;;5112859;27;1223;-56
2022/10/06 00:30:45;;;;;;;;;;;8.20;99.90;;;;;;5093991;27;1254;-57
2022/10/06 00:33:23;;;;;;;;;;;8.10;99.90;;;;;;5113171;27;1224;-57
2022/10/06 00:36:01;;;;;;;;;;;8.10;99.90;;;;;;5109908;27;1305;-57
2022/10/06 00:38:40;;;;;;;;;;;8.10;99.90;;;;;;5111620;27;1677;-57
2022/10/06 00:41:23;;;;;;;;;;;8.10;99.90;;;;;;5106937;27;1819;-56
2022/10/06 00:44:01;;;;;;;;;;;8.20;99.90;;;;;;5112043;27;1263;-57
2022/10/06 00:46:41;;;;;;;;;;;8.10;99.90;;;;;;5111419;27;1394;-57
2022/10/06 00:49:20;;;;;;;;;;;8.00;99.90;;;;;;5112383;27;1365;-56
2022/10/06 00:52:02;;;;;;;;;;;7.90;99.90;;;;;;5112733;27;1386;-57
2022/10/06 00:54:40;;;;;;;;;;;7.80;99.90;;;;;;5112871;27;1268;-57
2022/10/06 00:57:19;;;;;;;;;;;7.70;99.90;;;;;;5112863;27;1312;-57
2022/10/06 00:59:58;;;;;;;;;;;7.60;99.90;;;;;;5111936;27;1688;-57
2022/10/06 01:02:39;;;;;;;;;;;7.60;99.90;;;;;;5097286;27;1414;-57
2022/10/06 01:05:22;;;;;;;;;;;7.60;99.90;;;;;;5111484;27;1711;-57
2022/10/06 01:08:01;;;;;;;;;;;7.70;99.90;;;;;;5112582;27;1535;-57
2022/10/06 01:10:39;;;;;;;;;;;7.60;99.90;;;;;;5093791;27;1283;-55
2022/10/06 01:13:18;;;;;;;;;;;7.60;99.90;;;;;;5111819;27;1293;-57
2022/10/06 01:16:09;;;;;;;;;;;7.50;99.90;;;;;;5089924;27;1602;-57
2022/10/06 01:18:48;;;;;;;;;;;7.50;99.90;;;;;;5096800;27;1291;-57
2022/10/06 01:21:29;;;;;;;;;;;7.50;99.90;;;;;;5112537;27;1730;-57
2022/10/06 01:24:08;;;;;;;;;;;7.40;99.90;;;;;;5112665;27;1629;-57
2022/10/06 01:26:49;;;;;;;;;;;7.40;99.90;;;;;;5124405;27;1628;-57
2022/10/06 01:29:28;;;;;;;;;;;7.40;99.90;;;;;;5082875;27;1825;-56
2022/10/06 01:32:07;;;;;;;;;;;7.30;99.90;;;;;;5109502;27;1305;-57
2022/10/06 01:34:46;;;;;;;;;;;7.30;99.90;;;;;;5096333;27;1297;-55
2022/10/06 01:37:24;;;;;;;;;;;7.20;99.90;;;;;;5091174;27;1519;-57
2022/10/06 01:40:04;;;;;;;;;;;7.20;99.90;;;;;;5112245;27;1370;-57
2022/10/06 01:42:44;;;;;;;;;;;7.10;99.90;;;;;;5112611;27;1216;-57
2022/10/06 01:45:22;;;;;;;;;;;7.10;99.90;;;;;;5109136;27;1418;-54
2022/10/06 01:48:00;;;;;;;;;;;7.20;99.90;;;;;;5112562;27;1416;-57
2022/10/06 01:50:41;;;;;;;;;;;7.10;99.90;;;;;;5094451;27;1316;-57
2022/10/06 01:53:20;;;;;;;;;;;7.10;99.90;;;;;;5112340;27;1402;-57
2022/10/06 01:56:00;;;;;;;;;;;7.10;99.90;;;;;;5112304;27;1585;-57
2022/10/06 01:58:41;;;;;;;;;;;7.10;99.90;;;;;;5107775;27;1268;-57
2022/10/06 02:01:21;;;;;;;;;;;7.10;99.90;;;;;;5055449;27;1394;-57
2022/10/06 02:03:59;;;;;;;;;;;7.10;99.90;;;;;;5111570;27;1228;-57
2022/10/06 02:06:37;;;;;;;;;;;7.00;99.90;;;;;;5111835;27;1320;-57
2022/10/06 02:09:15;;;;;;;;;;;7.00;99.90;;;;;;5109789;27;1405;-57
2022/10/06 02:11:55;;;;;;;;;;;6.90;99.90;;;;;;5091333;27;1317;-55
2022/10/06 02:14:33;;;;;;;;;;;6.80;99.90;;;;;;5111657;27;1485;-57
2022/10/06 02:17:12;;;;;;;;;;;6.80;99.90;;;;;;5112001;27;1305;-57
2022/10/06 02:19:50;;;;;;;;;;;6.80;99.90;;;;;;5100137;27;1477;-57
2022/10/06 02:22:28;;;;;;;;;;;6.90;99.90;;;;;;5132163;27;1325;-57
2022/10/06 02:25:07;;;;;;;;;;;7.00;99.90;;;;;;5111514;27;1406;-57
2022/10/06 02:27:46;;;;;;;;;;;7.00;99.90;;;;;;5112728;27;1727;-57
2022/10/06 02:30:24;;;;;;;;;;;7.00;99.90;;;;;;5112520;27;1303;-57
2022/10/06 02:33:04;;;;;;;;;;;7.00;99.90;;;;;;5092734;27;1399;-57
2022/10/06 02:35:43;;;;;;;;;;;7.00;99.90;;;;;;5112875;27;1716;-57
2022/10/06 02:38:22;;;;;;;;;;;7.10;99.90;;;;;;5072068;27;1717;-56
2022/10/06 02:41:02;;;;;;;;;;;7.00;99.90;;;;;;5090940;27;1866;-57
2022/10/06 02:43:42;;;;;;;;;;;7.00;99.90;;;;;;5111419;27;1205;-57
2022/10/06 02:46:21;;;;;;;;;;;6.90;99.90;;;;;;5092530;27;1377;-57
2022/10/06 02:49:02;;;;;;;;;;;7.00;99.90;;;;;;5111859;27;1436;-57
2022/10/06 02:51:40;;;;;;;;;;;7.00;99.90;;;;;;5104562;27;1520;-57
2022/10/06 02:54:18;;;;;;;;;;;6.90;99.90;;;;;;5111733;27;1208;-57
2022/10/06 02:56:56;;;;;;;;;;;6.90;99.90;;;;;;5112021;27;1267;-57
2022/10/06 02:59:35;;;;;;;;;;;6.90;99.90;;;;;;5101752;27;1235;-57
2022/10/06 03:02:14;;;;;;;;;;;7.00;99.90;;;;;;5094245;27;1408;-57
2022/10/06 03:04:53;;;;;;;;;;;7.10;99.90;;;;;;5111913;27;1644;-57
2022/10/06 03:07:31;;;;;;;;;;;7.20;99.90;;;;;;5084462;27;1844;-57
2022/10/06 03:10:09;;;;;;;;;;;7.20;99.90;;;;;;5093954;27;1389;-56
2022/10/06 03:12:49;;;;;;;;;;;7.20;99.90;;;;;;5093636;27;2111;-56
2022/10/06 03:15:29;;;;;;;;;;;7.20;99.90;;;;;;5106949;27;1596;-56
2022/10/06 03:18:09;;;;;;;;;;;7.40;99.90;;;;;;5069529;27;2101;-56
2022/10/06 03:20:47;;;;;;;;;;;7.70;99.90;;;;;;5083995;27;1667;-57
2022/10/06 03:23:25;;;;;;;;;;;7.80;99.90;;;;;;5109890;27;1738;-56
2022/10/06 03:26:03;;;;;;;;;;;7.90;99.90;;;;;;5070450;27;1208;-56
2022/10/06 03:28:41;;;;;;;;;;;8.10;99.90;;;;;;5110231;27;1314;-56
2022/10/06 03:31:20;;;;;;;;;;;8.10;99.90;;;;;;5111477;27;1466;-56
2022/10/06 03:33:59;;;;;;;;;;;7.90;99.90;;;;;;5112615;27;1293;-56
2022/10/06 03:36:39;;;;;;;;;;;8.00;99.90;;;;;;5132750;27;1214;-56
2022/10/06 03:39:18;;;;;;;;;;;8.00;99.90;;;;;;5103391;27;1622;-56
2022/10/06 03:41:56;;;;;;;;;;;8.00;99.90;;;;;;5097953;27;1296;-56
2022/10/06 03:44:36;;;;;;;;;;;8.00;99.90;;;;;;5110280;27;1296;-56
2022/10/06 03:47:15;;;;;;;;;;;8.00;99.90;;;;;;5102531;27;2997;-56
2022/10/06 03:49:54;;;;;;;;;;;7.90;99.90;;;;;;5097379;27;1815;-57
2022/10/06 03:52:32;;;;;;;;;;;7.80;99.90;;;;;;5091748;27;1413;-56
2022/10/06 03:55:12;;;;;;;;;;;7.90;99.90;;;;;;5075690;27;2598;-57
2022/10/06 03:57:52;;;;;;;;;;;7.90;99.90;;;;;;5099163;27;1760;-56
2022/10/06 04:00:30;;;;;;;;;;;7.80;99.90;;;;;;5092157;27;1603;-57
2022/10/06 04:03:08;;;;;;;;;;;7.90;99.90;;;;;;5109959;27;1270;-56
2022/10/06 04:05:53;;;;;;;;;;;8.00;99.90;;;;;;5106638;27;1842;-56
2022/10/06 04:08:33;;;;;;;;;;;8.00;99.90;;;;;;5108061;27;2459;-57
2022/10/06 04:11:13;;;;;;;;;;;7.90;99.90;;;;;;5091148;27;1289;-60
2022/10/06 04:13:53;;;;;;;;;;;7.80;99.90;;;;;;5110231;27;1920;-56
2022/10/06 04:16:33;;;;;;;;;;;7.70;99.90;;;;;;5088204;27;1711;-57
2022/10/06 04:19:13;;;;;;;;;;;7.50;99.90;;;;;;5082692;27;1920;-59
2022/10/06 04:21:55;;;;;;;;;;;7.70;99.90;;;;;;5063420;27;2169;-59
2022/10/06 04:24:36;;;;;;;;;;;7.70;99.90;;;;;;5104172;27;1706;-56
2022/10/06 04:30:29;;;;;;;;;;;7.70;99.90;;;;;;5088881;27;1275;-58
2022/10/06 04:33:08;;;;;;;;;;;7.60;99.90;;;;;;5095659;27;1752;-57
2022/10/06 04:35:48;;;;;;;;;;;7.50;99.90;;;;;;5109689;27;1378;-57
2022/10/06 04:38:27;;;;;;;;;;;7.40;99.90;;;;;;5110893;27;1540;-57
2022/10/06 04:41:07;;;;;;;;;;;7.30;99.90;;;;;;5108841;27;1605;-57
2022/10/06 04:43:46;;;;;;;;;;;7.30;99.90;;;;;;5096314;27;2540;-58
2022/10/06 04:46:26;;;;;;;;;;;7.40;99.90;;;;;;5098169;27;1642;-59
2022/10/06 04:49:17;;;;;;;;;;;7.60;99.90;;;;;;5080448;27;1691;-57
2022/10/06 04:51:55;;;;;;;;;;;7.70;99.90;;;;;;5086698;27;1491;-55
2022/10/06 04:54:35;;;;;;;;;;;7.80;99.90;;;;;;5110705;27;1541;-59
2022/10/06 04:57:16;;;;;;;;;;;8.00;99.90;;;;;;5102248;27;1406;-57
2022/10/06 05:02:55;;;;;;;;;;;8.30;99.90;;;;;;5112713;27;1292;-56
2022/10/06 05:05:34;;;;;;;;;;;8.40;99.90;;;;;;5112132;27;1385;-58
2022/10/06 05:08:12;;;;;;;;;;;8.30;99.90;;;;;;5112356;27;1265;-55
2022/10/06 05:10:50;;;;;;;;;;;8.20;99.90;;;;;;5111836;27;1242;-57
2022/10/06 05:13:28;;;;;;;;;;;8.20;99.90;;;;;;5112857;27;1294;-57
2022/10/06 05:16:10;;;;;;;;;;;8.10;99.90;;;;;;5112488;27;1409;-58
2022/10/06 05:18:49;;;;;;;;;;;7.90;99.90;;;;;;5109515;27;1375;-57
2022/10/06 05:21:29;;;;;;;;;;;7.80;99.90;;;;;;5106677;27;1540;-58
2022/10/06 05:24:09;;;;;;;;;;;7.90;99.90;;;;;;5110179;27;1298;-56
2022/10/06 05:26:49;;;;;;;;;;;8.00;99.90;;;;;;5111696;27;1377;-58
2022/10/06 05:29:27;;;;;;;;;;;8.20;99.90;;;;;;5103395;27;1453;-57
2022/10/06 05:32:05;;;;;;;;;;;8.10;99.90;;;;;;5089743;27;1663;-57
2022/10/06 05:34:45;;;;;;;;;;;8.10;99.90;;;;;;5110543;27;1612;-58
2022/10/06 05:37:24;;;;;;;;;;;8.00;99.90;;;;;;5091537;27;1474;-58
2022/10/06 05:40:04;;;;;;;;;;;8.10;99.90;;;;;;5106420;27;1359;-58
2022/10/06 05:42:43;;;;;;;;;;;8.20;99.90;;;;;;5111197;27;1249;-57
2022/10/06 05:45:23;;;;;;;;;;;8.10;99.90;;;;;;5110345;27;1566;-58
2022/10/06 05:48:01;;;;;;;;;;;8.10;99.90;;;;;;5098750;27;1638;-58
2022/10/06 05:50:41;;;;;;;;;;;8.10;99.90;;;;;;5093106;27;1310;-56
2022/10/06 05:53:19;;;;;;;;;;;8.20;99.90;;;;;;5107696;27;1607;-58
2022/10/06 05:56:05;;;;;;;;;;;8.30;99.90;;;;;;5110840;27;1413;-58
2022/10/06 05:58:44;;;;;;;;;;;8.30;99.90;;;;;;5110934;27;1644;-57
2022/10/06 06:01:24;;;;;;;;;;;8.50;99.90;;;;;;5092053;27;1386;-58
2022/10/06 06:04:06;;;;;;;;;;;8.60;99.90;;;;;;5112970;27;1348;-57
2022/10/06 06:06:49;;;;;;;;;;;8.60;99.90;;;;;;5112166;27;1378;-54
2022/10/06 06:09:34;;;;;;;;;;;8.70;99.90;;;;;;5108772;27;1644;-57
2022/10/06 06:12:16;;;;;;;;;;;8.80;99.90;;;;;;5108744;27;1490;-56
2022/10/06 06:18:08;;;;;;;;;;;9.20;99.90;;;;;;5091557;27;1720;-57
2022/10/06 06:20:56;;;;;;;;;;;9.50;99.90;;;;;;5093191;27;1385;-57
2022/10/06 06:23:36;;;;;;;;;;;9.60;99.90;;;;;;5111686;27;1483;-57
2022/10/06 06:26:16;;;;;;;;;;;9.70;99.90;;;;;;5112228;27;1301;-58
2022/10/06 06:29:01;;;;;;;;;;;9.80;99.90;;;;;;5091395;27;1382;-56
2022/10/06 06:31:42;;;;;;;;;;;10.00;99.90;;;;;;5085982;27;1724;-59
2022/10/06 06:34:21;;;;;;;;;;;10.20;99.90;;;;;;5110429;27;1423;-58
2022/10/06 06:37:00;;;;;;;;;;;10.40;99.90;;;;;;5111041;27;1308;-55
2022/10/06 06:39:39;;;;;;;;;;;10.50;99.90;;;;;;5111576;27;1429;-56
2022/10/06 06:42:17;;;;;;;;;;;10.70;99.90;;;;;;5112432;27;1231;-56
2022/10/06 06:44:58;;;;;;;;;;;11.10;99.90;;;;;;5112215;27;1694;-56
2022/10/06 06:47:49;;;;;;;;;;;11.30;99.90;;;;;;5111720;27;1382;-57
2022/10/06 06:50:30;;;;;;;;;;;11.30;99.90;;;;;;5096049;27;1406;-57
2022/10/06 06:53:09;;;;;;;;;;;11.40;99.90;;;;;;5113362;27;1220;-56
2022/10/06 06:55:50;;;;;;;;;;;11.50;99.90;;;;;;5112775;27;1426;-57
2022/10/06 06:58:29;;;;;;;;;;;11.60;99.90;;;;;;5112467;27;1350;-56
2022/10/06 07:01:12;;;;;;;;;;;11.70;99.90;;;;;;5091857;27;1210;-56
2022/10/06 07:03:53;;;;;;;;;;;11.80;99.90;;;;;;5112389;27;1197;-56
2022/10/06 07:06:38;;;;;;;;;;;12.00;99.90;;;;;;5092340;27;1398;-56
2022/10/06 07:09:19;;;;;;;;;;;12.20;99.90;;;;;;5109351;27;1502;-56
2022/10/06 07:11:59;;;;;;;;;;;12.30;99.90;;;;;;5099091;27;1674;-57
2022/10/06 07:25:05;;;;;;;;;;;12.40;99.90;;;;;;5110887;27;1242;-57
2022/10/06 07:26:31;;;;;;;;;;;12.70;99.90;;;;;;5071834;27;1755;-56
2022/10/06 07:29:10;;;;;;;;;;;12.80;99.90;;;;;;5107952;27;1451;-56
2022/10/06 07:31:50;;;;;;;;;;;12.90;99.90;;;;;;5109023;27;1721;-58
2022/10/06 07:34:29;;;;;;;;;;;13.00;99.90;;;;;;5110397;27;1431;-58
2022/10/06 07:37:08;;;;;;;;;;;13.10;99.90;;;;;;5112094;27;1347;-57
2022/10/06 07:39:48;;;;;;;;;;;13.20;99.90;;;;;;5102591;27;1366;-57
2022/10/06 07:42:27;;;;;;;;;;;13.40;99.90;;;;;;5112097;27;1556;-58
2022/10/06 07:48:04;;;;;;;;;;;13.50;99.90;;;;;;5111703;27;1304;-59
2022/10/06 07:50:44;;;;;;;;;;;13.50;99.90;;;;;;5107194;27;1833;-57
2022/10/06 07:53:27;;;;;;;;;;;13.60;99.90;;;;;;5111311;27;1413;-57
2022/10/06 07:56:09;;;;;;;;;;;13.60;99.90;;;;;;5104881;27;1431;-59
2022/10/06 07:58:52;;;;;;;;;;;13.50;99.90;;;;;;5097789;27;1491;-59
2022/10/06 08:01:30;;;;;;;;;;;13.60;99.90;;;;;;5112749;27;1407;-58
2022/10/06 08:04:09;;;;;;;;;;;13.60;99.90;;;;;;5113077;27;1481;-58
2022/10/06 08:06:48;;;;;;;;;;;13.60;99.90;;;;;;5091478;27;1331;-57
2022/10/06 08:09:27;;;;;;;;;;;13.60;99.90;;;;;;5083969;27;1409;-59
2022/10/06 08:12:31;;;;;;;;;;;13.70;99.90;;;;;;5112024;27;1226;-57
2022/10/06 08:15:05;;;;;;;;;;;13.90;99.90;;;;;;5110201;27;1570;-56
2022/10/06 08:17:44;;;;;;;;;;;14.20;99.90;;;;;;5110674;27;1257;-57
2022/10/06 08:20:23;;;;;;;;;;;14.70;99.90;;;;;;5095750;27;1371;-56
2022/10/06 08:23:05;;;;;;;;;;;14.90;99.90;;;;;;5095855;27;2129;-56
2022/10/06 08:25:50;;;;;;;;;;;15.10;99.90;;;;;;5110767;27;1269;-56
2022/10/06 08:28:31;;;;;;;;;;;15.20;99.90;;;;;;5092057;27;1468;-57
2022/10/06 08:31:10;;;;;;;;;;;15.30;99.90;;;;;;5090283;27;1837;-58
2022/10/06 08:33:52;;;;;;;;;;;15.40;99.90;;;;;;5110508;27;1312;-56
2022/10/06 08:36:31;;;;;;;;;;;15.30;99.90;;;;;;5091144;27;1515;-56
2022/10/06 08:39:09;;;;;;;;;;;15.10;99.90;;;;;;5087712;27;1385;-57
2022/10/06 08:41:50;;;;;;;;;;;15.00;99.90;;;;;;5112007;27;1296;-57
2022/10/06 08:44:30;;;;;;;;;;;14.80;99.90;;;;;;5111862;27;1500;-57
2022/10/06 08:47:12;;;;;;;;;;;14.70;99.90;;;;;;5091556;27;1226;-56
2022/10/06 08:49:53;;;;;;;;;;;14.50;99.90;;;;;;5111539;27;1638;-56
2022/10/06 08:52:41;;;;;;;;;;;14.30;99.90;;;;;;5111832;27;1624;-56
2022/10/06 08:55:24;;;;;;;;;;;14.20;99.90;;;;;;5091654;27;1367;-56
2022/10/06 08:58:17;;;;;;;;;;;14.10;99.90;;;;;;5112168;27;1597;-57
2022/10/06 09:01:00;;;;;;;;;;;14.10;99.90;;;;;;5099044;27;1308;-57
2022/10/06 09:03:39;;;;;;;;;;;13.90;99.90;;;;;;5111700;27;1261;-58
2022/10/06 09:06:22;;;;;;;;;;;13.90;99.90;;;;;;5112412;27;1296;-57
2022/10/06 09:09:03;;;;;;;;;;;13.90;99.90;;;;;;5106380;27;1595;-58
2022/10/06 09:11:49;;;;;;;;;;;14.00;99.90;;;;;;5109763;27;1625;-57
2022/10/06 09:14:33;;;;;;;;;;;14.10;99.90;;;;;;5090063;27;1302;-57
2022/10/06 09:17:14;;;;;;;;;;;14.10;99.90;;;;;;5111322;27;1320;-57
2022/10/06 09:19:55;;;;;;;;;;;14.30;99.90;;;;;;5093194;27;1626;-57
2022/10/06 09:22:34;;;;;;;;;;;14.50;99.90;;;;;;5110804;27;1304;-57
2022/10/06 09:25:16;;;;;;;;;;;14.90;99.90;;;;;;5089854;27;1552;-55
2022/10/06 09:27:56;;;;;;;;;;;15.50;99.90;;;;;;5091438;27;1210;-55
2022/10/06 09:30:35;;;;;;;;;;;16.20;99.90;;;;;;5092319;27;1382;-57
2022/10/06 09:33:17;;;;;;;;;;;16.60;99.90;;;;;;5071508;27;1181;-57
2022/10/06 09:36:07;;;;;;;;;;;16.80;99.90;;;;;;5092024;27;1309;-57
2022/10/06 09:38:47;;;;;;;;;;;16.90;99.90;;;;;;5091329;27;1563;-58
2022/10/06 09:41:27;;;;;;;;;;;17.00;99.90;;;;;;5098190;27;2121;-55
2022/10/06 09:44:07;;;;;;;;;;;17.20;99.90;;;;;;5110002;27;1304;-57
2022/10/06 09:46:45;;;;;;;;;;;17.60;99.90;;;;;;5090637;27;1946;-57
2022/10/06 09:49:24;;;;;;;;;;;18.00;99.90;;;;;;5104267;27;1398;-57
2022/10/06 09:52:10;;;;;;;;;;;18.20;99.90;;;;;;5111312;27;1209;-57
2022/10/06 09:55:02;;;;;;;;;;;18.20;99.90;;;;;;5111449;27;1240;-57
2022/10/06 09:57:48;;;;;;;;;;;18.00;99.90;;;;;;5111260;27;1716;-57
2022/10/06 10:00:28;;;;;;;;;;;18.00;99.90;;;;;;5108830;27;1783;-57
2022/10/06 10:03:08;;;;;;;;;;;18.20;99.90;;;;;;5110342;27;1261;-57
2022/10/06 10:05:50;;;;;;;;;;;18.50;99.90;;;;;;5110882;27;1685;-57
2022/10/06 10:08:29;;;;;;;;;;;18.80;99.90;;;;;;5090827;27;1328;-56
2022/10/06 10:14:17;;;;;;;;;;;19.20;99.90;;;;;;5109439;27;2006;-57
2022/10/06 10:16:56;;;;;;;;;;;19.00;99.90;;;;;;5107045;27;1581;-57
2022/10/06 10:19:41;;;;;;;;;;;18.80;99.90;;;;;;5100363;27;1702;-57
2022/10/06 10:22:23;;;;;;;;;;;18.70;99.90;;;;;;5110119;27;1529;-57
2022/10/06 10:25:06;;;;;;;;;;;18.90;99.90;;;;;;5111637;27;1667;-58
2022/10/06 10:27:51;;;;;;;;;;;19.10;99.90;;;;;;5084472;27;1230;-57
2022/10/06 10:30:31;;;;;;;;;;;19.10;99.90;;;;;;5102660;27;1638;-57
2022/10/06 10:33:12;;;;;;;;;;;19.10;99.90;;;;;;5097466;27;1288;-57
2022/10/06 10:35:54;;;;;;;;;;;18.80;99.90;;;;;;5089249;27;1566;-57
2022/10/06 10:38:39;;;;;;;;;;;18.70;99.90;;;;;;5111528;27;1309;-58
2022/10/06 10:41:20;;;;;;;;;;;18.60;99.90;;;;;;5111765;27;1401;-57
2022/10/06 10:44:04;;;;;;;;;;;18.70;99.90;;;;;;5111720;27;1398;-57
2022/10/06 10:46:46;;;;;;;;;;;18.80;99.90;;;;;;5111690;27;1483;-57
2022/10/06 10:49:26;;;;;;;;;;;18.80;99.90;;;;;;5110749;27;1375;-57
2022/10/06 10:52:09;;;;;;;;;;;19.10;99.90;;;;;;5111961;27;1641;-57
2022/10/06 10:54:49;;;;;;;;;;;19.20;99.90;;;;;;5111563;27;1601;-57
2022/10/06 10:57:34;;;;;;;;;;;19.10;99.90;;;;;;5091615;27;1209;-57
2022/10/06 11:00:18;;;;;;;;;;;19.20;99.90;;;;;;5093492;27;1679;-57
2022/10/06 11:02:57;;;;;;;;;;;19.40;99.90;;;;;;5107873;27;1868;-57
2022/10/06 11:05:44;;;;;;;;;;;19.70;99.90;;;;;;5088782;27;1301;-58
2022/10/06 11:08:24;;;;;;;;;;;20.00;99.90;;;;;;5109369;27;1297;-57
2022/10/06 11:11:07;;;;;;;;;;;20.30;99.90;;;;;;5091339;27;1327;-57
2022/10/06 11:13:47;;;;;;;;;;;20.70;99.90;;;;;;5090822;27;1454;-55
2022/10/06 11:16:35;;;;;;;;;;;20.70;99.90;;;;;;5111177;27;1956;-57
2022/10/06 11:19:17;;;;;;;;;;;20.90;99.90;;;;;;5107034;27;1741;-57
2022/10/06 11:21:58;;;;;;;;;;;20.90;99.90;;;;;;5109877;27;1273;-57
2022/10/06 11:24:39;;;;;;;;;;;21.20;99.90;;;;;;5110477;27;1297;-57
2022/10/06 11:27:22;;;;;;;;;;;21.10;99.90;;;;;;5091998;27;1371;-57
2022/10/06 11:30:05;;;;;;;;;;;21.20;99.90;;;;;;5099254;27;1603;-57
2022/10/06 11:32:49;;;;;;;;;;;21.30;99.90;;;;;;5112384;27;1696;-57
2022/10/06 11:35:33;;;;;;;;;;;21.10;99.90;;;;;;5111072;27;1463;-57
2022/10/06 11:38:19;;;;;;;;;;;21.00;99.90;;;;;;5089131;27;1604;-57
2022/10/06 11:41:08;;;;;;;;;;;20.90;99.90;;;;;;5110912;27;1407;-57
2022/10/06 11:43:51;;;;;;;;;;;20.80;99.90;;;;;;5090908;27;1595;-57
2022/10/06 11:46:34;;;;;;;;;;;20.80;99.90;;;;;;5111873;27;1239;-57
2022/10/06 11:49:30;;;;;;;;;;;21.10;99.90;;;;;;5103875;27;1637;-57
2022/10/06 11:52:26;;;;;;;;;;;21.20;99.90;;;;;;5110135;27;1306;-57
2022/10/06 11:55:11;;;;;;;;;;;21.10;99.90;;;;;;5089665;27;1311;-57
2022/10/06 11:58:04;;;;;;;;;;;20.80;99.90;;;;;;5111405;27;1313;-57
2022/10/06 12:00:50;;;;;;;;;;;20.50;99.90;;;;;;5092045;27;1726;-57
2022/10/06 12:03:43;;;;;;;;;;;20.10;99.90;;;;;;5068036;27;1764;-57
2022/10/06 12:06:39;;;;;;;;;;;19.80;99.90;;;;;;5107939;27;1611;-57
2022/10/06 12:09:40;;;;;;;;;;;19.70;99.90;;;;;;5099819;27;1922;-57
2022/10/06 12:12:36;;;;;;;;;;;19.30;99.90;;;;;;5087878;27;1689;-57
2022/10/06 12:15:22;;;;;;;;;;;19.00;99.90;;;;;;5109815;27;1327;-57
2022/10/06 12:18:04;;;;;;;;;;;18.90;99.90;;;;;;5111738;27;1380;-57
2022/10/06 12:20:50;;;;;;;;;;;18.60;99.90;;;;;;5072914;27;1802;-57
2022/10/06 12:23:28;;;;;;;;;;;;;;;;;;5111003;27;1394;-57
2022/10/06 12:26:05;;;;;;;;;;;;;;;;;;5111468;27;1236;-57
2022/10/06 12:28:44;;;;;;;;;;;;;;;;;;5069245;27;1951;-57
2022/10/06 12:31:32;;;;;;;;;;;19.10;99.90;;;;;;5090034;27;1466;-57
2022/10/06 12:34:28;;;;;;;;;;;19.40;99.90;;;;;;5109790;27;1658;-57
2022/10/06 12:37:35;;;;;;;;;;;19.60;99.90;;;;;;5090920;27;1395;-57
2022/10/06 12:40:31;;;;;;;;;;;19.30;99.90;;;;;;5086128;27;1652;-57
2022/10/06 12:43:24;;;;;;;;;;;18.80;99.90;;;;;;5109851;27;1523;-57
2022/10/06 12:46:11;;;;;;;;;;;18.50;99.90;;;;;;5110659;27;1341;-55
2022/10/06 12:48:54;;;;;;;;;;;18.40;99.90;;;;;;5068333;27;1566;-58
2022/10/06 12:51:34;;;;;;;;;;;18.40;99.90;;;;;;5112512;27;1304;-57
2022/10/06 12:54:16;;;;;;;;;;;18.40;99.90;;;;;;5112222;27;1213;-55
2022/10/06 12:56:58;;;;;;;;;;;18.10;99.90;;;;;;5112009;27;1308;-58
2022/10/06 12:59:39;;;;;;;;;;;18.10;99.90;;;;;;5104886;27;1596;-57
2022/10/06 13:02:20;;;;;;;;;;;18.20;99.90;;;;;;5096258;27;1748;-57
2022/10/06 13:04:59;;;;;;;;;;;18.00;99.90;;;;;;5110156;27;1519;-57
2022/10/06 13:07:54;;;;;;;;;;;17.80;99.90;;;;;;5070101;27;1221;-57
2022/10/06 13:10:33;;;;;;;;;;;17.40;99.90;;;;;;5108268;27;1456;-58
2022/10/06 13:13:19;;;;;;;;;;;16.90;99.90;;;;;;5109816;27;1211;-57
2022/10/06 13:15:59;;;;;;;;;;;16.60;99.90;;;;;;5091800;27;1313;-58
2022/10/06 13:18:38;;;;;;;;;;;16.60;99.90;;;;;;5111700;27;1451;-57
2022/10/06 13:21:17;;;;;;;;;;;16.60;99.90;;;;;;5066010;27;1843;-58
2022/10/06 13:23:55;;;;;;;;;;;16.70;99.90;;;;;;5110631;27;1450;-57
2022/10/06 13:26:33;;;;;;;;;;;16.70;99.90;;;;;;5090178;27;1599;-57
2022/10/06 13:29:18;;;;;;;;;;;16.70;99.90;;;;;;5086028;27;1358;-57
2022/10/06 13:31:57;;;;;;;;;;;16.70;99.90;;;;;;5091607;27;1226;-57
2022/10/06 13:34:41;;;;;;;;;;;16.70;99.90;;;;;;5071280;27;1209;-57
2022/10/06 13:37:20;;;;;;;;;;;16.70;99.90;;;;;;5111887;27;1237;-57
2022/10/06 13:39:59;;;;;;;;;;;16.70;99.90;;;;;;5106483;27;1753;-57
2022/10/06 13:42:38;;;;;;;;;;;16.60;99.90;;;;;;5107901;27;1642;-57
2022/10/06 13:45:17;;;;;;;;;;;16.60;99.90;;;;;;5109570;27;1863;-57
2022/10/06 13:48:11;;;;;;;;;;;16.60;99.90;;;;;;5111541;27;1382;-57
2022/10/06 13:50:51;;;;;;;;;;;16.50;99.90;;;;;;5110862;27;1474;-57
2022/10/06 13:53:32;;;;;;;;;;;16.50;99.90;;;;;;5112190;27;1324;-58
2022/10/06 13:56:22;;;;;;;;;;;16.50;99.90;;;;;;5071175;27;1289;-57
2022/10/06 14:01:51;;;;;;;;;;;16.30;99.90;;;;;;5071728;27;1528;-58
2022/10/06 14:04:29;;;;;;;;;;;16.30;99.90;;;;;;5108598;27;1890;-57
2022/10/06 14:07:11;;;;;;;;;;;16.30;99.90;;;;;;5069336;27;1372;-57
2022/10/06 14:09:51;;;;;;;;;;;16.40;99.90;;;;;;5100016;27;2071;-57
2022/10/06 14:12:31;;;;;;;;;;;16.30;99.90;;;;;;5110420;27;1381;-58
2022/10/06 14:15:16;;;;;;;;;;;16.30;99.90;;;;;;5110950;27;1333;-57
2022/10/06 14:17:56;;;;;;;;;;;16.30;99.90;;;;;;5090846;27;1305;-57
2022/10/06 14:20:40;;;;;;;;;;;16.20;99.90;;;;;;5084285;27;1644;-57
2022/10/06 14:23:34;;;;;;;;;;;16.20;99.90;;;;;;5110017;27;1690;-58
2022/10/06 14:26:14;;;;;;;;;;;16.10;99.90;;;;;;5131094;27;1351;-57
2022/10/06 14:28:54;;;;;;;;;;;16.10;99.90;;;;;;5089490;27;1283;-58
2022/10/06 14:31:33;;;;;;;;;;;16.10;99.90;;;;;;5091497;27;1313;-57
2022/10/06 14:34:14;;;;;;;;;;;16.00;99.90;;;;;;5071904;27;1625;-58
2022/10/06 14:36:54;;;;;;;;;;;15.90;99.90;;;;;;5111956;27;1389;-58
2022/10/06 14:39:33;;;;;;;;;;;15.80;99.90;;;;;;5083671;27;1750;-57
2022/10/06 14:42:13;;;;;;;;;;;15.70;99.90;;;;;;5091494;27;1225;-58
2022/10/06 14:44:51;;;;;;;;;;;15.70;99.90;;;;;;5091579;27;1350;-58
2022/10/06 14:47:30;;;;;;;;;;;15.60;99.90;;;;;;5090617;27;1233;-58
2022/10/06 14:50:09;;;;;;;;;;;15.50;99.90;;;;;;5105704;27;1285;-58
2022/10/06 14:52:47;;;;;;;;;;;15.40;99.90;;;;;;5110408;27;1659;-58
2022/10/06 14:55:27;;;;;;;;;;;15.30;99.90;;;;;;5073431;27;1811;-58
2022/10/06 14:58:05;;;;;;;;;;;15.20;99.90;;;;;;5095708;27;1359;-57
2022/10/06 15:00:44;;;;;;;;;;;15.10;99.90;;;;;;5102498;27;1643;-57
2022/10/06 15:03:24;;;;;;;;;;;15.00;99.90;;;;;;5090037;27;1399;-57
2022/10/06 15:09:01;;;;;;;;;;;14.80;99.90;;;;;;5088228;27;1409;-58
2022/10/06 15:11:39;;;;;;;;;;;14.70;99.90;;;;;;5112137;27;1179;-58
2022/10/06 15:14:20;;;;;;;;;;;14.50;99.90;;;;;;5091788;27;1321;-58
2022/10/06 15:16:59;;;;;;;;;;;14.40;99.90;;;;;;5090879;27;1481;-58
2022/10/06 15:19:39;;;;;;;;;;;14.20;99.90;;;;;;5091347;27;1383;-58
2022/10/06 15:22:18;;;;;;;;;;;14.20;99.90;;;;;;5153235;22;1904;-53
2022/10/06 15:24:58;;;;;;;;;;;14.10;99.90;;;;;;5013380;27;3333261;-53
2022/10/06 15:30:40;;;;;;;;;;;13.90;99.90;;;;;;5104754;27;1791;-53
2022/10/06 15:33:18;;;;;;;;;;;13.80;99.90;;;;;;5108583;27;1394;-53
2022/10/06 15:36:12;;;;;;;;;;;13.80;99.90;;;;;;5089554;27;1293;-53
2022/10/06 15:38:51;;;;;;;;;;;13.60;99.90;;;;;;5109714;27;1406;-53
2022/10/06 15:41:29;;;;;;;;;;;13.40;99.90;;;;;;5120750;27;2060;-54
2022/10/06 15:44:07;;;;;;;;;;;13.20;99.90;;;;;;5093799;27;1793;-53
2022/10/06 15:46:47;;;;;;;;;;;13.10;99.90;;;;;;5087345;27;1977;-54
2022/10/06 15:49:28;;;;;;;;;;;13.00;99.90;;;;;;5109536;27;1303;-53
2022/10/06 15:52:07;;;;;;;;;;;12.90;99.90;;;;;;5089787;27;1716;-53
2022/10/06 15:54:48;;;;;;;;;;;12.90;99.90;;;;;;5111124;27;1411;-53
2022/10/06 15:57:27;;;;;;;;;;;12.80;99.90;;;;;;5070299;27;1410;-53
2022/10/06 16:00:08;;;;;;;;;;;12.70;99.90;;;;;;5085209;27;1698;-54
2022/10/06 16:02:51;;;;;;;;;;;12.50;99.90;;;;;;5090452;27;1721;-54
2022/10/06 16:05:43;;;;;;;;;;;12.30;99.90;;;;;;5099511;27;1932;-54
2022/10/06 16:08:22;;;;;;;;;;;12.20;99.90;;;;;;5108926;27;1608;-54
2022/10/06 16:11:00;;;;;;;;;;;11.90;99.90;;;;;;5086235;27;1431;-54
2022/10/06 16:13:38;;;;;;;;;;;11.70;99.90;;;;;;5091807;27;1236;-54
2022/10/06 16:16:16;;;;;;;;;;;11.40;99.90;;;;;;5091793;27;1540;-54
2022/10/06 16:18:55;;;;;;;;;;;11.20;99.90;;;;;;5090383;27;1383;-53
2022/10/06 16:21:33;;;;;;;;;;;11.00;99.90;;;;;;5096353;27;1304;-54
2022/10/06 16:24:11;;;;;;;;;;;10.80;99.90;;;;;;5092094;27;1564;-54
2022/10/06 16:26:50;;;;;;;;;;;10.60;99.90;;;;;;5102011;27;1360;-54
2022/10/06 16:29:29;;;;;;;;;;;10.40;99.90;;;;;;5101154;27;1528;-54
2022/10/06 16:32:07;;;;;;;;;;;10.20;99.90;;;;;;5112565;27;1350;-54